Terminal Aerodrome Forecast
Issued by NWS

Home | Current Version | Previous Version | Text Only | Print | Product List | Glossary On
Versions: 1 2 3 4 5 6 7 8 9 10 11 12 13 14 15
000
FTUS43 KAPX 221740
TAFTVC
TAF
KTVC 221740Z 2218/2318 26004KT P6SM OVC040
     FM230000 VRB03KT P6SM OVC035
     FM230200 21004KT P6SM OVC110
     FM230500 21006KT P6SM OVC080
     FM230900 23005KT P6SM OVC050=

USA.gov is the U.S. government's official web portal to all federal, state and local government web resources and services.